Terminal Aerodrome Forecast
Issued by NWS

Home | Current Version | Previous Version | Text Only | Print | Product List | Glossary On
Versions: 1 2 3 4 5 6 7 8 9 10 11 12 13 14 15 16 17 18 19 20 21
000
FTUS46 KHNX 221730
TAFMCE
TAF
KMCE 221730Z 2218/2318 34006KT 2SM BR BKN005 OVC015
      TEMPO 2219/2222 4SM BR SCT005 BKN015
     FM222200 32005KT 4SM HZ SCT005 BKN015
     FM230600 VRB03KT 2SM BR OVC005
      TEMPO 2310/2314 1/2SM FG VV002=

USA.gov is the U.S. government's official web portal to all federal, state and local government web resources and services.